Time;durP1;ratioP1;P1;durP2;ratioP2;P2;SDS_P1;SDS_P2;PMS_P1;PMS_P2;Temp;Humidity;BMP_temperature;BMP_pressure;BME280_temperature;BME280_humidity;BME280_pressure;Samples;Min_cycle;Max_cycle;Signal;HPM_P1;HPM_P2
2023/12/24 00:00:27;;;;;;;6.35;1.08;;;24.40;99.90;;;;;;4997549;28;20246;-78
2023/12/24 00:02:58;;;;;;;4.70;1.33;;;24.30;99.90;;;;;;5025536;28;20199;-78
2023/12/24 00:05:31;;;;;;;5.80;1.20;;;24.10;99.90;;;;;;4970663;28;20202;-79
2023/12/24 00:08:02;;;;;;;5.20;1.08;;;24.20;99.90;;;;;;4988580;28;20597;-78
2023/12/24 00:10:32;;;;;;;4.72;1.15;;;24.30;99.90;;;;;;4986727;28;20596;-78
2023/12/24 00:13:03;;;;;;;7.63;1.40;;;24.50;99.90;;;;;;4990032;28;20207;-78
2023/12/24 00:15:34;;;;;;;7.40;1.25;;;24.50;99.90;;;;;;4985016;28;20205;-78
2023/12/24 00:18:05;;;;;;;5.30;1.30;;;24.60;99.90;;;;;;4991647;28;20247;-78
2023/12/24 00:20:37;;;;;;;5.43;1.38;;;24.70;99.90;;;;;;4981496;28;20222;-78
2023/12/24 00:23:10;;;;;;;10.43;3.22;;;24.80;99.90;;;;;;4996322;28;20223;-79
2023/12/24 00:25:41;;;;;;;6.25;2.42;;;24.90;99.90;;;;;;4970209;28;20227;-78
2023/12/24 00:28:12;;;;;;;5.40;1.58;;;25.00;99.90;;;;;;4986707;28;20202;-78
2023/12/24 00:30:43;;;;;;;5.78;1.25;;;25.00;99.90;;;;;;4979833;28;20317;-78
2023/12/24 00:33:14;;;;;;;4.95;1.20;;;24.90;99.90;;;;;;4984498;28;20213;-78
2023/12/24 00:35:46;;;;;;;7.28;1.40;;;24.80;99.90;;;;;;4989080;28;20197;-78
2023/12/24 00:38:17;;;;;;;4.97;1.00;;;24.70;99.90;;;;;;4981029;28;20205;-79
2023/12/24 00:40:50;;;;;;;6.75;1.40;;;24.60;99.90;;;;;;4982179;28;20220;-78
2023/12/24 00:43:21;;;;;;;7.65;1.42;;;24.40;99.90;;;;;;4972277;28;20222;-79
2023/12/24 00:45:52;;;;;;;6.60;1.13;;;24.30;99.90;;;;;;4985730;28;20654;-78
2023/12/24 00:48:23;;;;;;;7.20;1.13;;;24.20;99.90;;;;;;4975178;28;20273;-78
2023/12/24 00:50:56;;;;;;;5.38;1.27;;;24.00;99.90;;;;;;4988111;28;20223;-79
2023/12/24 00:53:27;;;;;;;6.78;1.63;;;24.00;99.90;;;;;;4974094;28;20199;-78
2023/12/24 00:55:58;;;;;;;8.05;1.58;;;23.90;99.90;;;;;;4982160;28;20195;-78
2023/12/24 00:58:29;;;;;;;3.95;1.13;;;23.80;99.90;;;;;;4972774;28;20203;-78
2023/12/24 01:01:00;;;;;;;8.75;1.63;;;23.70;99.90;;;;;;4981324;28;20222;-78
2023/12/24 01:03:31;;;;;;;5.55;1.42;;;23.60;99.90;;;;;;4986195;28;20569;-79
2023/12/24 01:06:04;;;;;;;6.30;1.30;;;23.40;99.90;;;;;;4974223;28;20199;-78
2023/12/24 01:08:34;;;;;;;5.00;1.30;;;23.40;99.90;;;;;;4981863;28;20198;-78
2023/12/24 01:11:06;;;;;;;6.28;1.35;;;23.40;99.90;;;;;;4988713;28;20665;-79
2023/12/24 01:13:36;;;;;;;6.07;1.90;;;23.40;99.90;;;;;;4984353;28;20201;-78
2023/12/24 01:16:08;;;;;;;9.43;1.85;;;23.30;99.90;;;;;;4973411;28;20207;-78
2023/12/24 01:18:38;;;;;;;12.93;2.63;;;23.30;99.90;;;;;;4979707;28;20213;-78
2023/12/24 01:21:11;;;;;;;7.97;2.40;;;23.20;99.90;;;;;;4990644;28;20247;-78
2023/12/24 01:23:42;;;;;;;7.68;2.28;;;23.10;99.90;;;;;;4972251;28;20202;-77
2023/12/24 01:26:13;;;;;;;11.68;2.80;;;23.00;99.90;;;;;;5043179;28;20548;-77
2023/12/24 01:28:45;;;;;;;15.20;3.67;;;22.80;99.90;;;;;;5001711;28;20600;-77
2023/12/24 01:31:16;;;;;;;9.95;2.85;;;22.70;99.90;;;;;;4994294;28;20240;-77
2023/12/24 01:33:46;;;;;;;11.45;2.70;;;22.60;99.90;;;;;;5028686;28;20397;-77
2023/12/24 01:36:19;;;;;;;10.80;2.75;;;22.40;99.90;;;;;;4997444;28;20203;-77
2023/12/24 01:38:50;;;;;;;10.88;3.00;;;22.30;99.90;;;;;;4987690;28;20207;-77
2023/12/24 01:41:21;;;;;;;7.30;1.92;;;22.30;99.90;;;;;;4991480;28;20202;-77
2023/12/24 01:43:52;;;;;;;8.02;2.30;;;22.10;99.90;;;;;;4996470;28;20198;-76
2023/12/24 01:46:24;;;;;;;8.07;2.53;;;22.10;99.90;;;;;;5004744;28;20272;-76
2023/12/24 01:48:55;;;;;;;10.38;2.60;;;22.10;99.90;;;;;;5000357;28;20701;-78
2023/12/24 01:51:28;;;;;;;10.15;2.60;;;22.10;99.90;;;;;;4985819;28;20715;-77
2023/12/24 01:53:59;;;;;;;9.85;2.40;;;22.10;99.90;;;;;;4999755;28;20201;-78
2023/12/24 01:56:31;;;;;;;8.63;2.45;;;22.10;99.90;;;;;;4987829;28;20230;-77
2023/12/24 01:59:02;;;;;;;8.23;2.00;;;22.20;99.90;;;;;;4987230;28;20218;-78
2023/12/24 02:01:33;;;;;;;9.30;2.25;;;22.10;99.90;;;;;;4973055;28;20220;-78
2023/12/24 02:04:04;;;;;;;8.00;1.85;;;22.20;99.90;;;;;;4987130;28;20202;-76
2023/12/24 02:06:38;;;;;;;8.65;2.10;;;22.10;99.90;;;;;;5001590;28;20203;-77
2023/12/24 02:09:09;;;;;;;9.02;2.03;;;22.20;99.90;;;;;;4992610;28;20223;-78
2023/12/24 02:11:40;;;;;;;7.43;1.63;;;22.20;99.90;;;;;;4981133;28;20996;-77
2023/12/24 02:14:10;;;;;;;10.68;2.33;;;22.20;99.90;;;;;;4983253;28;20618;-79
2023/12/24 02:16:44;;;;;;;12.82;1.92;;;22.30;99.90;;;;;;4974550;28;20226;-78
2023/12/24 02:19:20;;;;;;;7.07;1.75;;;22.20;99.90;;;;;;4982680;28;20191;-78
2023/12/24 02:21:52;;;;;;;6.95;1.80;;;22.20;99.90;;;;;;4987956;28;20202;-78
2023/12/24 02:24:24;;;;;;;9.55;2.08;;;22.20;99.90;;;;;;4988503;28;20865;-77
2023/12/24 02:27:07;;;;;;;8.98;2.00;;;22.10;99.90;;;;;;4988688;28;20588;-78
2023/12/24 02:29:44;;;;;;;11.45;2.40;;;22.10;99.90;;;;;;4979699;28;20222;-78
2023/12/24 02:32:18;;;;;;;13.05;2.30;;;22.00;99.90;;;;;;4969125;28;20203;-78
2023/12/24 02:34:50;;;;;;;7.55;1.90;;;21.90;99.90;;;;;;4984586;28;20205;-78
2023/12/24 02:37:23;;;;;;;11.45;2.40;;;21.90;99.90;;;;;;4987779;28;20211;-78
2023/12/24 02:39:54;;;;;;;11.93;2.33;;;22.00;99.90;;;;;;4988715;28;20210;-78
2023/12/24 02:42:25;;;;;;;7.22;1.77;;;22.00;99.90;;;;;;4991404;28;20202;-78
2023/12/24 02:44:55;;;;;;;9.82;1.83;;;22.10;99.90;;;;;;4982914;28;20688;-78
2023/12/24 02:47:26;;;;;;;9.27;1.70;;;22.10;99.90;;;;;;4985406;28;20199;-77
2023/12/24 02:49:57;;;;;;;8.57;1.92;;;22.20;99.90;;;;;;4972118;28;20226;-78
2023/12/24 02:52:30;;;;;;;12.05;2.30;;;22.20;99.90;;;;;;4985274;28;20195;-79
2023/12/24 02:55:00;;;;;;;10.32;2.10;;;22.20;99.90;;;;;;4983411;28;20234;-79
2023/12/24 02:57:31;;;;;;;8.15;1.80;;;22.20;99.90;;;;;;4986926;28;20570;-79
2023/12/24 03:00:04;;;;;;;9.38;1.77;;;22.10;99.90;;;;;;4992128;28;20230;-79
2023/12/24 03:02:35;;;;;;;12.82;1.92;;;22.10;99.90;;;;;;4993165;28;20288;-78
2023/12/24 03:05:06;;;;;;;8.27;2.10;;;22.10;99.90;;;;;;4991123;28;20199;-78
2023/12/24 03:07:39;;;;;;;7.13;2.00;;;22.20;99.90;;;;;;4985348;28;20196;-77
2023/12/24 03:10:10;;;;;;;9.88;1.92;;;22.30;99.90;;;;;;4988502;28;20223;-78
2023/12/24 03:12:41;;;;;;;10.90;2.20;;;22.30;99.90;;;;;;4985527;28;20203;-77
2023/12/24 03:15:13;;;;;;;12.85;2.80;;;22.40;99.90;;;;;;4987893;28;20205;-78
2023/12/24 03:17:43;;;;;;;13.88;2.42;;;22.50;99.90;;;;;;4990318;28;20191;-78
2023/12/24 03:20:14;;;;;;;11.32;2.42;;;22.60;99.90;;;;;;4992212;28;20257;-78
2023/12/24 03:22:47;;;;;;;10.93;2.55;;;22.70;99.90;;;;;;4990148;28;20194;-78
2023/12/24 03:25:18;;;;;;;12.68;2.58;;;22.70;99.90;;;;;;5004969;28;20206;-78
2023/12/24 03:27:48;;;;;;;14.82;3.05;;;22.70;99.90;;;;;;4977956;28;20197;-80
2023/12/24 03:30:19;;;;;;;11.30;2.40;;;22.70;99.90;;;;;;4990263;28;20252;-80
2023/12/24 03:32:53;;;;;;;10.65;2.70;;;22.60;99.90;;;;;;4993386;28;20613;-80
2023/12/24 03:35:24;;;;;;;14.32;2.53;;;22.70;99.90;;;;;;4976627;28;20427;-79
2023/12/24 03:37:57;;;;;;;9.20;2.13;;;22.70;99.90;;;;;;4983678;28;20214;-77
2023/12/24 03:40:27;;;;;;;6.60;1.98;;;22.70;99.90;;;;;;4989335;28;20289;-79
2023/12/24 03:42:58;;;;;;;12.45;2.25;;;22.70;99.90;;;;;;4993903;28;20306;-78
2023/12/24 03:45:29;;;;;;;14.25;2.47;;;22.60;99.90;;;;;;4984744;28;20197;-78
2023/12/24 03:48:00;;;;;;;11.57;2.58;;;22.60;99.90;;;;;;4989148;28;20194;-78
2023/12/24 03:50:31;;;;;;;9.40;2.20;;;22.60;99.90;;;;;;4987754;28;20230;-77
2023/12/24 03:53:03;;;;;;;11.48;2.13;;;22.60;99.90;;;;;;4989049;28;20202;-78
2023/12/24 03:55:34;;;;;;;9.05;1.83;;;22.60;99.90;;;;;;4981095;28;20199;-78
2023/12/24 03:58:05;;;;;;;8.32;2.28;;;22.70;99.90;;;;;;4981266;28;20213;-77
2023/12/24 04:00:36;;;;;;;16.95;2.90;;;22.80;99.90;;;;;;4986326;28;20198;-77
2023/12/24 04:03:06;;;;;;;10.30;2.15;;;23.00;99.90;;;;;;4977058;28;20638;-78
2023/12/24 04:05:37;;;;;;;14.80;2.47;;;23.00;99.90;;;;;;4981438;28;20195;-78
2023/12/24 04:08:11;;;;;;;14.88;2.17;;;23.20;99.90;;;;;;4973170;28;20199;-77
2023/12/24 04:10:44;;;;;;;12.48;2.47;;;23.30;99.90;;;;;;5060664;28;20310;-77
2023/12/24 04:13:14;;;;;;;12.43;1.75;;;23.60;99.90;;;;;;5033496;28;20227;-78
2023/12/24 04:15:45;;;;;;;9.93;1.40;;;23.70;99.90;;;;;;4989164;28;20374;-78
2023/12/24 04:18:16;;;;;;;9.93;1.80;;;23.70;99.90;;;;;;4989668;28;20211;-78
2023/12/24 04:20:47;;;;;;;11.02;1.55;;;23.80;99.90;;;;;;4985893;28;20226;-78
2023/12/24 04:23:19;;;;;;;7.82;1.42;;;24.00;99.90;;;;;;4989572;28;20281;-78
2023/12/24 04:25:50;;;;;;;8.57;1.50;;;24.10;99.90;;;;;;4989619;28;20210;-77
2023/12/24 04:28:21;;;;;;;8.43;1.83;;;24.20;99.90;;;;;;5008777;28;20201;-78
2023/12/24 04:30:52;;;;;;;6.75;1.30;;;24.10;99.90;;;;;;5000122;28;20241;-78
2023/12/24 04:33:22;;;;;;;8.75;1.35;;;24.10;99.90;;;;;;4981331;28;20202;-78
2023/12/24 04:35:53;;;;;;;6.72;1.17;;;24.00;99.90;;;;;;4977139;28;20523;-76
2023/12/24 04:38:26;;;;;;;7.20;1.60;;;24.00;99.90;;;;;;4993806;28;20283;-82
2023/12/24 04:40:57;;;;;;;6.57;1.58;;;24.00;99.90;;;;;;5027090;28;20205;-80
2023/12/24 04:43:27;;;;;;;4.75;1.05;;;24.10;99.90;;;;;;4987596;28;20203;-78
2023/12/24 04:45:58;;;;;;;5.47;1.50;;;24.10;99.90;;;;;;4983111;28;20217;-80
2023/12/24 04:48:32;;;;;;;5.07;1.30;;;24.30;99.90;;;;;;4979887;28;20286;-79
2023/12/24 04:51:03;;;;;;;3.33;1.23;;;24.50;99.90;;;;;;4988336;28;20226;-79
2023/12/24 04:53:36;;;;;;;6.55;1.48;;;24.90;99.90;;;;;;4989948;28;20253;-80
2023/12/24 04:56:07;;;;;;;4.05;0.95;;;25.10;99.90;;;;;;4976767;28;20673;-79
2023/12/24 04:58:38;;;;;;;8.40;1.55;;;25.10;99.90;;;;;;4984001;28;20199;-79
2023/12/24 05:01:08;;;;;;;4.70;1.10;;;25.10;99.90;;;;;;4991977;28;20211;-81
2023/12/24 05:03:39;;;;;;;6.22;1.25;;;25.10;99.90;;;;;;4987578;28;20591;-80
2023/12/24 05:06:10;;;;;;;3.58;1.13;;;25.10;99.90;;;;;;4989236;28;20207;-79
2023/12/24 05:08:43;;;;;;;5.95;1.30;;;25.00;99.90;;;;;;4988509;28;20691;-79
2023/12/24 05:11:14;;;;;;;5.38;1.40;;;24.90;99.90;;;;;;4989036;28;20305;-80
2023/12/24 05:13:45;;;;;;;3.83;1.10;;;24.80;99.90;;;;;;4970239;28;20202;-79
2023/12/24 05:16:16;;;;;;;6.50;1.25;;;24.80;99.90;;;;;;4973872;28;20207;-78
2023/12/24 05:18:48;;;;;;;5.43;1.20;;;24.70;99.90;;;;;;4991458;28;20237;-80
2023/12/24 05:21:20;;;;;;;5.15;1.20;;;24.50;99.90;;;;;;4987521;28;20235;-79
2023/12/24 05:23:52;;;;;;;6.72;1.40;;;24.40;99.90;;;;;;4988775;28;20203;-79
2023/12/24 05:26:24;;;;;;;6.90;1.77;;;24.30;99.90;;;;;;4982221;28;20199;-79
2023/12/24 05:28:55;;;;;;;5.22;1.20;;;24.30;99.90;;;;;;4987346;28;20282;-79
2023/12/24 05:31:26;;;;;;;6.03;1.70;;;24.20;99.90;;;;;;4988574;28;20306;-79
2023/12/24 05:33:57;;;;;;;5.50;1.10;;;24.10;99.90;;;;;;4988050;28;20203;-79
2023/12/24 05:36:28;;;;;;;7.35;1.73;;;24.20;99.90;;;;;;5070783;28;20206;-79
2023/12/24 05:39:00;;;;;;;4.88;1.33;;;24.20;99.90;;;;;;4988536;28;20745;-78
2023/12/24 05:41:31;;;;;;;4.35;1.40;;;24.20;99.90;;;;;;4991042;28;20215;-78
2023/12/24 05:44:02;;;;;;;5.78;1.33;;;24.30;99.90;;;;;;4975880;28;20207;-78
2023/12/24 05:46:33;;;;;;;8.38;1.58;;;24.30;99.90;;;;;;4972041;28;20225;-78
2023/12/24 05:49:04;;;;;;;6.95;1.55;;;24.40;99.90;;;;;;4984103;28;20203;-79
2023/12/24 05:51:35;;;;;;;6.60;1.50;;;24.20;99.90;;;;;;4992803;28;20313;-78
2023/12/24 05:54:08;;;;;;;5.97;1.70;;;24.30;99.90;;;;;;4989539;28;20194;-78
2023/12/24 05:56:38;;;;;;;4.53;1.40;;;24.30;99.90;;;;;;4985524;28;20556;-79
2023/12/24 05:59:10;;;;;;;7.45;1.65;;;24.20;99.90;;;;;;5001963;28;20234;-81
2023/12/24 06:01:41;;;;;;;4.05;1.10;;;24.10;99.90;;;;;;4988089;28;20561;-80
2023/12/24 06:04:12;;;;;;;1.55;0.63;;;23.90;99.90;;;;;;4988599;28;20570;-81
2023/12/24 06:06:44;;;;;;;3.22;0.88;;;23.40;99.90;;;;;;4987775;28;20260;-80
2023/12/24 06:09:17;;;;;;;1.08;0.50;;;23.00;99.90;;;;;;5042840;28;20693;-82
2023/12/24 06:11:47;;;;;;;0.38;0.30;;;22.80;99.90;;;;;;5014662;28;20233;-81
2023/12/24 06:14:18;;;;;;;0.57;0.30;;;22.60;99.90;;;;;;4987207;28;20242;-79
2023/12/24 06:16:49;;;;;;;1.02;0.50;;;22.30;99.90;;;;;;4987608;28;20236;-81
2023/12/24 06:19:20;;;;;;;1.27;0.40;;;22.20;99.90;;;;;;4987500;28;20558;-81
2023/12/24 06:21:50;;;;;;;0.98;0.40;;;21.90;99.90;;;;;;4989085;28;20206;-82
2023/12/24 06:24:24;;;;;;;1.30;0.40;;;21.60;99.90;;;;;;4977836;28;20207;-80
2023/12/24 06:26:55;;;;;;;0.88;0.25;;;21.40;99.90;;;;;;4982663;28;20230;-79
2023/12/24 06:29:26;;;;;;;0.52;0.30;;;21.10;99.90;;;;;;5000815;28;20191;-79
2023/12/24 06:31:59;;;;;;;1.20;0.43;;;21.00;99.90;;;;;;5001388;28;20282;-79
2023/12/24 06:34:30;;;;;;;1.48;0.60;;;21.00;99.90;;;;;;4994992;28;20205;-81
2023/12/24 06:37:00;;;;;;;1.05;0.60;;;21.00;99.90;;;;;;4970840;28;20196;-82
2023/12/24 06:39:33;;;;;;;0.75;0.60;;;21.00;99.90;;;;;;4988582;28;20202;-80
2023/12/24 06:42:04;;;;;;;1.42;0.52;;;21.10;99.90;;;;;;4990950;28;20234;-84
2023/12/24 06:44:35;;;;;;;4.47;1.88;;;21.10;99.90;;;;;;5043983;28;20206;-81
2023/12/24 06:47:05;;;;;;;4.72;2.35;;;21.10;99.90;;;;;;4975499;28;20199;-82
2023/12/24 06:49:36;;;;;;;6.40;2.75;;;21.20;99.90;;;;;;4983331;28;20195;-81
2023/12/24 06:52:07;;;;;;;5.25;1.80;;;21.30;99.90;;;;;;4986858;28;20226;-83
2023/12/24 06:54:40;;;;;;;2.25;1.55;;;21.40;99.90;;;;;;4988566;28;20199;-81
2023/12/24 06:57:14;;;;;;;4.72;2.67;;;21.40;99.90;;;;;;4992483;28;20553;-82
2023/12/24 06:59:44;;;;;;;2.92;1.75;;;21.40;99.90;;;;;;4991198;28;20565;-81
2023/12/24 07:02:15;;;;;;;3.22;1.30;;;21.40;99.90;;;;;;4987837;28;20203;-81
2023/12/24 07:04:49;;;;;;;1.73;1.02;;;21.40;99.90;;;;;;4990063;28;20660;-80
2023/12/24 07:07:19;;;;;;;2.78;0.88;;;21.40;99.90;;;;;;5000965;28;20321;-81
2023/12/24 07:09:52;;;;;;;1.85;0.88;;;21.40;99.90;;;;;;4989473;28;20199;-81
2023/12/24 07:12:23;;;;;;;2.15;0.75;;;21.40;99.90;;;;;;4987024;28;20218;-81
2023/12/24 07:14:54;;;;;;;0.98;0.75;;;21.50;99.90;;;;;;4980314;28;20202;-81
2023/12/24 07:17:24;;;;;;;3.40;1.13;;;21.40;99.90;;;;;;5012407;28;20200;-80
2023/12/24 07:19:56;;;;;;;1.92;1.70;;;21.50;99.90;;;;;;4983149;28;20693;-84
2023/12/24 07:22:27;;;;;;;2.50;1.35;;;21.60;99.90;;;;;;4983376;28;20212;-81
2023/12/24 07:24:59;;;;;;;2.85;1.60;;;21.60;99.90;;;;;;4978241;28;20687;-82
2023/12/24 07:27:30;;;;;;;4.55;1.88;;;21.70;99.90;;;;;;4990063;28;20203;-84
2023/12/24 07:30:01;;;;;;;2.08;1.50;;;21.60;99.90;;;;;;4982161;28;20200;-80
2023/12/24 07:32:32;;;;;;;3.90;1.75;;;21.70;99.90;;;;;;4975923;28;20690;-84
2023/12/24 07:35:03;;;;;;;5.13;1.60;;;21.80;99.90;;;;;;4977821;28;20224;-84
2023/12/24 07:37:33;;;;;;;10.68;2.30;;;21.80;99.90;;;;;;4979308;28;20699;-79
2023/12/24 07:40:08;;;;;;;7.80;2.10;;;21.90;99.90;;;;;;5006849;28;20206;-82
2023/12/24 07:42:40;;;;;;;7.88;1.95;;;21.90;99.90;;;;;;5006400;28;20263;-81
2023/12/24 07:45:12;;;;;;;4.95;1.52;;;21.80;99.90;;;;;;4988811;28;20215;-83
2023/12/24 07:47:43;;;;;;;3.55;1.35;;;21.80;99.90;;;;;;4975341;28;20314;-84
2023/12/24 07:50:14;;;;;;;5.50;1.40;;;21.70;99.90;;;;;;4983876;28;20557;-83
2023/12/24 07:52:48;;;;;;;5.72;1.20;;;21.80;99.90;;;;;;5061866;28;20234;-83
2023/12/24 07:55:20;;;;;;;7.65;1.55;;;21.90;99.90;;;;;;4988870;28;20578;-83
2023/12/24 07:57:51;;;;;;;4.53;1.30;;;21.90;99.90;;;;;;4989615;28;20248;-81
2023/12/24 08:00:22;;;;;;;7.35;1.63;;;22.00;99.90;;;;;;4990380;28;20289;-81
2023/12/24 08:02:53;;;;;;;3.95;1.40;;;22.10;99.90;;;;;;4990343;28;20210;-81
2023/12/24 08:05:24;;;;;;;5.38;1.40;;;22.20;99.90;;;;;;4982953;28;20206;-82
2023/12/24 08:07:55;;;;;;;5.82;1.63;;;22.20;99.90;;;;;;4996736;28;20198;-83
2023/12/24 08:10:28;;;;;;;5.47;1.58;;;22.20;99.90;;;;;;4990720;28;20262;-83
2023/12/24 08:12:59;;;;;;;10.13;2.50;;;22.20;99.90;;;;;;4987742;28;20723;-81
2023/12/24 08:15:30;;;;;;;11.55;2.22;;;22.30;99.90;;;;;;4985629;28;20191;-81
2023/12/24 08:18:04;;;;;;;11.07;2.38;;;22.30;99.90;;;;;;4978490;28;20640;-83
2023/12/24 08:20:34;;;;;;;11.88;2.50;;;22.40;99.90;;;;;;4984477;28;20292;-83
2023/12/24 08:23:07;;;;;;;12.65;2.92;;;22.40;99.90;;;;;;4990547;28;20738;-82
2023/12/24 08:25:39;;;;;;;10.00;2.17;;;22.40;99.90;;;;;;4992574;28;20257;-82
2023/12/24 08:28:10;;;;;;;10.65;2.20;;;22.30;99.90;;;;;;4990036;28;20199;-82
2023/12/24 08:30:41;;;;;;;13.23;2.42;;;22.30;99.90;;;;;;4990248;28;20207;-80
2023/12/24 08:33:12;;;;;;;6.53;1.77;;;22.20;99.90;;;;;;4989352;28;20226;-82
2023/12/24 08:35:43;;;;;;;8.75;1.70;;;22.10;99.90;;;;;;4989019;28;20213;-81
2023/12/24 08:38:14;;;;;;;7.63;1.35;;;21.90;99.90;;;;;;4992127;28;20623;-81
2023/12/24 08:40:46;;;;;;;5.93;1.33;;;21.90;99.90;;;;;;4989204;28;20222;-80
2023/12/24 08:43:17;;;;;;;4.13;1.08;;;21.80;99.90;;;;;;4984964;28;20203;-80
2023/12/24 08:45:48;;;;;;;6.95;1.60;;;21.70;99.90;;;;;;5011605;28;20186;-81
2023/12/24 08:48:19;;;;;;;6.60;1.65;;;21.70;99.90;;;;;;5005788;28;20558;-81
2023/12/24 08:50:50;;;;;;;9.77;2.40;;;21.60;99.90;;;;;;4996150;28;20684;-77
2023/12/24 08:53:21;;;;;;;9.85;2.30;;;21.60;99.90;;;;;;4990095;28;20238;-78
2023/12/24 08:55:54;;;;;;;11.55;2.05;;;21.60;99.90;;;;;;4989692;28;20665;-80
2023/12/24 08:58:25;;;;;;;10.23;1.88;;;21.60;99.90;;;;;;4991731;28;20213;-80
2023/12/24 09:00:55;;;;;;;11.70;2.10;;;21.50;99.90;;;;;;4990010;28;20198;-79
2023/12/24 09:03:26;;;;;;;8.55;1.90;;;21.50;99.90;;;;;;4980675;28;20207;-80
2023/12/24 09:05:57;;;;;;;7.18;1.60;;;21.50;99.90;;;;;;4988884;28;20220;-80
2023/12/24 09:08:28;;;;;;;10.27;2.20;;;21.50;99.90;;;;;;4988202;28;20203;-80
2023/12/24 09:11:04;;;;;;;8.82;2.00;;;21.40;99.90;;;;;;4989135;28;20229;-80
2023/12/24 09:13:35;;;;;;;8.25;1.80;;;21.40;99.90;;;;;;4987238;28;20218;-85
2023/12/24 09:16:06;;;;;;;11.30;2.00;;;21.50;99.90;;;;;;4991236;28;20213;-79
2023/12/24 09:18:36;;;;;;;8.27;1.63;;;21.50;99.90;;;;;;4986704;28;20207;-80
2023/12/24 09:21:07;;;;;;;5.05;1.35;;;21.50;99.90;;;;;;4982252;28;20697;-80
2023/12/24 09:23:38;;;;;;;4.72;1.33;;;21.50;99.90;;;;;;4988130;28;20252;-79
2023/12/24 09:26:11;;;;;;;6.55;1.42;;;21.50;99.90;;;;;;4970858;28;20203;-80
2023/12/24 09:28:42;;;;;;;5.65;1.50;;;21.50;99.90;;;;;;4969427;28;20222;-80
2023/12/24 09:31:13;;;;;;;6.70;1.60;;;21.50;99.90;;;;;;5026749;28;20281;-80
2023/12/24 09:33:44;;;;;;;6.38;1.40;;;21.60;99.90;;;;;;5006004;28;20223;-79
2023/12/24 09:36:14;;;;;;;6.72;1.35;;;21.60;99.90;;;;;;5005902;28;20711;-80
2023/12/24 09:38:45;;;;;;;6.35;1.30;;;21.60;99.90;;;;;;5008418;28;20202;-81
2023/12/24 09:41:21;;;;;;;7.53;1.40;;;21.70;99.90;;;;;;5001765;28;20680;-80
2023/12/24 09:43:52;;;;;;;8.52;1.45;;;21.70;99.90;;;;;;4989007;28;20293;-79
2023/12/24 09:46:23;;;;;;;4.65;1.35;;;21.80;99.90;;;;;;4985586;28;20255;-79
2023/12/24 09:48:54;;;;;;;6.00;1.17;;;21.80;99.90;;;;;;4980491;28;20278;-79
2023/12/24 09:51:25;;;;;;;5.78;1.15;;;21.80;99.90;;;;;;5003374;28;20224;-79
2023/12/24 09:53:58;;;;;;;4.72;1.10;;;21.90;99.90;;;;;;4977020;28;20226;-79
2023/12/24 09:56:30;;;;;;;5.75;1.02;;;21.90;99.90;;;;;;4991352;28;20610;-79
2023/12/24 09:59:02;;;;;;;4.63;1.40;;;21.90;99.90;;;;;;4989770;28;20206;-79
2023/12/24 10:01:43;;;;;;;4.13;1.05;;;21.90;99.90;;;;;;4988749;28;20222;-79
2023/12/24 10:04:14;;;;;;;8.52;1.58;;;21.90;99.90;;;;;;4984297;28;20203;-78
2023/12/24 10:06:59;;;;;;;6.72;1.58;;;21.90;99.90;;;;;;5023150;28;20191;-78
2023/12/24 10:09:45;;;;;;;4.57;1.08;;;21.90;99.90;;;;;;5089863;28;20700;-79
2023/12/24 10:12:18;;;;;;;4.10;1.05;;;21.90;99.90;;;;;;4987708;28;20226;-80
2023/12/24 10:14:58;;;;;;;6.43;1.00;;;21.90;99.90;;;;;;4988008;28;20331;-80
2023/12/24 10:17:32;;;;;;;6.35;1.30;;;22.00;99.90;;;;;;4986319;28;20199;-79
2023/12/24 10:20:04;;;;;;;6.30;1.33;;;22.00;99.90;;;;;;4992621;28;20288;-79
2023/12/24 10:22:35;;;;;;;3.70;1.20;;;22.00;99.90;;;;;;4990605;28;20199;-79
2023/12/24 10:25:07;;;;;;;6.10;1.50;;;22.00;99.90;;;;;;5005560;28;20679;-79
2023/12/24 10:27:39;;;;;;;6.30;1.58;;;22.00;99.90;;;;;;4995267;28;20264;-81
2023/12/24 10:30:14;;;;;;;5.05;1.20;;;22.00;99.90;;;;;;5007435;28;20676;-80
2023/12/24 10:32:46;;;;;;;5.85;1.40;;;22.00;99.90;;;;;;4997312;28;20221;-79
2023/12/24 10:35:26;;;;;;;6.28;1.50;;;22.00;99.90;;;;;;4980845;28;20198;-78
2023/12/24 10:38:15;;;;;;;5.50;1.48;;;22.00;99.90;;;;;;4987632;28;20195;-79
2023/12/24 10:40:45;;;;;;;7.75;1.67;;;22.00;99.90;;;;;;4990919;28;20736;-78
2023/12/24 10:43:19;;;;;;;8.27;2.05;;;21.90;99.90;;;;;;4985631;28;20204;-80
2023/12/24 10:45:50;;;;;;;11.05;2.25;;;21.80;99.90;;;;;;5000569;28;20234;-79
2023/12/24 10:48:21;;;;;;;5.22;1.80;;;21.70;99.90;;;;;;4983515;28;20206;-78
2023/12/24 10:50:52;;;;;;;10.18;2.25;;;21.70;99.90;;;;;;4988639;28;20211;-79
2023/12/24 10:53:23;;;;;;;7.32;1.92;;;21.60;99.90;;;;;;4993233;28;20234;-79
2023/12/24 10:56:02;;;;;;;4.78;1.52;;;21.60;99.90;;;;;;4988449;28;20215;-79
2023/12/24 10:58:45;;;;;;;6.15;1.33;;;21.60;99.90;;;;;;5044081;28;20199;-79
2023/12/24 11:01:18;;;;;;;5.80;1.42;;;21.60;99.90;;;;;;5002215;28;20222;-80
2023/12/24 11:03:52;;;;;;;5.65;1.60;;;21.50;99.90;;;;;;4988148;28;20214;-78
2023/12/24 11:06:50;;;;;;;6.72;1.50;;;21.50;99.90;;;;;;4993242;28;20254;-76
2023/12/24 11:09:47;;;;;;;4.53;1.30;;;21.60;99.90;;;;;;4987631;28;20218;-76
2023/12/24 11:12:38;;;;;;;9.35;1.75;;;21.60;99.90;;;;;;4993479;28;20339;-76
2023/12/24 11:15:12;;;;;;;7.82;1.80;;;21.60;99.90;;;;;;5052538;28;20224;-76
2023/12/24 11:17:53;;;;;;;6.30;1.50;;;21.60;99.90;;;;;;5011223;28;20190;-75
2023/12/24 11:20:43;;;;;;;8.20;1.60;;;21.60;99.90;;;;;;4976940;28;20239;-76
2023/12/24 11:23:16;;;;;;;6.55;1.35;;;21.50;99.90;;;;;;4976324;28;20301;-76
2023/12/24 11:25:48;;;;;;;6.53;1.40;;;21.50;99.90;;;;;;4995350;28;20304;-76
2023/12/24 11:28:38;;;;;;;7.47;1.30;;;21.50;99.90;;;;;;4989768;28;20284;-78
2023/12/24 11:31:11;;;;;;;6.15;1.52;;;21.50;99.90;;;;;;5001771;28;20606;-78
2023/12/24 11:33:54;;;;;;;7.57;1.48;;;21.50;99.90;;;;;;4982564;28;20230;-77
2023/12/24 11:36:26;;;;;;;6.20;1.40;;;21.50;99.90;;;;;;4980323;28;20538;-77
2023/12/24 11:38:59;;;;;;;7.28;1.40;;;21.60;99.90;;;;;;4988816;28;20284;-77
2023/12/24 11:41:30;;;;;;;6.90;1.58;;;21.60;99.90;;;;;;4997996;28;20705;-77
2023/12/24 11:44:02;;;;;;;5.15;1.50;;;21.50;99.90;;;;;;4987880;28;20343;-77
2023/12/24 11:46:39;;;;;;;6.82;1.60;;;21.60;99.90;;;;;;4977172;28;20215;-78
2023/12/24 11:49:18;;;;;;;8.68;2.03;;;21.60;99.90;;;;;;4986770;28;20604;-77
2023/12/24 11:51:49;;;;;;;6.75;1.65;;;21.60;99.90;;;;;;4993640;28;20278;-77
2023/12/24 11:54:23;;;;;;;10.15;2.05;;;21.60;99.90;;;;;;4988175;28;20700;-78
2023/12/24 11:56:54;;;;;;;9.00;2.10;;;21.60;99.90;;;;;;4991103;28;20236;-77
2023/12/24 11:59:25;;;;;;;12.13;2.20;;;21.60;99.90;;;;;;4989086;28;20301;-77
2023/12/24 12:02:06;;;;;;;9.85;1.98;;;21.60;99.90;;;;;;4988098;28;20311;-77
2023/12/24 12:04:37;;;;;;;12.73;2.35;;;21.50;99.90;;;;;;4987315;28;20673;-77
2023/12/24 12:07:08;;;;;;;10.45;2.08;;;21.50;99.90;;;;;;4989863;28;20779;-77
2023/12/24 12:09:39;;;;;;;10.43;2.00;;;21.50;99.90;;;;;;5013318;28;20298;-77
2023/12/24 12:12:10;;;;;;;11.75;2.30;;;21.50;99.90;;;;;;5034451;28;20210;-77
2023/12/24 12:14:41;;;;;;;9.27;1.95;;;21.50;99.90;;;;;;5045378;28;20222;-76
2023/12/24 12:17:13;;;;;;;8.98;2.05;;;21.50;99.90;;;;;;5013892;28;20211;-78
2023/12/24 12:19:44;;;;;;;12.20;1.83;;;21.50;99.90;;;;;;5020401;28;20230;-77
2023/12/24 12:22:15;;;;;;;5.82;1.52;;;21.40;99.90;;;;;;5009255;28;20216;-78
2023/12/24 12:24:46;;;;;;;5.82;1.55;;;21.40;99.90;;;;;;4989218;28;20872;-77
2023/12/24 12:27:16;;;;;;;9.93;1.90;;;21.40;99.90;;;;;;5026391;28;20279;-75
2023/12/24 12:29:47;;;;;;;10.18;1.90;;;21.40;99.90;;;;;;5028711;28;20288;-76
2023/12/24 12:32:20;;;;;;;7.50;1.80;;;21.40;99.90;;;;;;4990737;28;20225;-76
2023/12/24 12:34:50;;;;;;;8.90;1.75;;;21.40;99.90;;;;;;5029133;28;20188;-77
2023/12/24 12:37:21;;;;;;;10.55;1.85;;;21.40;99.90;;;;;;5004019;28;20194;-77
2023/12/24 12:39:52;;;;;;;5.28;1.38;;;21.40;99.90;;;;;;4992311;28;20223;-77
2023/12/24 12:42:23;;;;;;;8.60;1.67;;;21.40;99.90;;;;;;4986918;28;20289;-76
2023/12/24 12:44:54;;;;;;;9.07;1.70;;;21.40;99.90;;;;;;4991179;28;20561;-77
2023/12/24 12:47:26;;;;;;;7.50;1.67;;;21.40;99.90;;;;;;4976705;28;20568;-77
2023/12/24 12:49:58;;;;;;;6.32;1.30;;;21.40;99.90;;;;;;4989368;28;20214;-77
2023/12/24 12:52:29;;;;;;;7.30;1.60;;;21.40;99.90;;;;;;4990594;28;20248;-77
2023/12/24 12:55:05;;;;;;;5.88;1.40;;;21.40;99.90;;;;;;4996259;28;20214;-77
2023/12/24 12:57:36;;;;;;;5.55;1.40;;;21.40;99.90;;;;;;5035477;28;20322;-77
2023/12/24 13:00:13;;;;;;;4.85;1.20;;;21.30;99.90;;;;;;5006503;28;20221;-76
2023/12/24 13:02:46;;;;;;;8.82;1.60;;;21.30;99.90;;;;;;4978963;28;20336;-76
2023/12/24 13:05:30;;;;;;;7.95;1.65;;;21.30;99.90;;;;;;4996632;28;20221;-76
2023/12/24 13:08:05;;;;;;;7.78;1.40;;;21.30;99.90;;;;;;4994884;28;20226;-77
2023/12/24 13:10:38;;;;;;;6.90;1.45;;;21.30;99.90;;;;;;4976327;28;20648;-77